Morning Clara — 9V7564 — position and weather

sailwx.info

Track history (hours):
 
Tides and Currents Weather Stations Pressure Air Temp Water Temp Dewpoint Dewpoint Depression Visibility Wind Speed Wind Dir Waves Ship Positions

Morning Clara

Last reported at 2016-Jun-25 04:33 UTC. Time now 2016-Jun-28 18:49 UTC.
Position N 27°13' W 118°45'.

Length 200 m; draft 9.4 m.

Type: Cargo ship. MMSI: 564254000.

Date/timePositionNaut miles runAvg speedWind from/ knotsBaromVisibWave heightAir tempDewpointWater temp
2016-Jun-25 04:33N 27°13' W 118°45'5919.2
2016-Jun-25 01:30N 27°46' W 119°39'2019.2
2016-Jun-25 00:26N 27°57' W 119°59'1719.3
2016-Jun-24 23:33N 28°06' W 120°15'1919.5
2016-Jun-24 22:33N 28°17' W 120°33'1919.3
2016-Jun-24 21:33N 28°29' W 120°51'1919.4
2016-Jun-24 20:33N 28°40' W 121°09'1919.4
2016-Jun-24 19:33N 28°51' W 121°27'1919.5
2016-Jun-24 18:33N 29°02' W 121°45'1919.3
2016-Jun-24 17:33N 29°13' W 122°04'1919.1
2016-Jun-24 16:33N 29°23' W 122°22'2318.9
2016-Jun-24 15:21N 29°36' W 122°44'1619.3
2016-Jun-24 14:31N 29°45' W 122°59'1919.3
2016-Jun-24 13:33N 29°55' W 123°17'1919.2
2016-Jun-24 12:33N 30°06' W 123°36'1919.3
2016-Jun-24 11:33N 30°17' W 123°54'2619.1
2016-Jun-24 10:11N 30°31' W 124°20'1219.1
2016-Jun-24 09:33N 30°37' W 124°31'2119.0
2016-Jun-24 08:26N 30°49' W 124°52'1618.8
2016-Jun-24 07:33N 30°58' W 125°08'2319.0
2016-Jun-24 06:22N 31°10' W 125°30'3719.1
2016-Jun-24 04:26N 31°30' W 126°07'1919.0
2016-Jun-24 03:27N 31°40' W 126°25'1718.9
2016-Jun-24 02:33N 31°49' W 126°42'1918.9
2016-Jun-24 01:33N 31°59' W 127°01'2019.2
2016-Jun-24 00:31N 32°09' W 127°21'1919.1
2016-Jun-23 23:32N 32°19' W 127°40'2219.1
2016-Jun-23 22:24N 32°30' W 128°02'2119.1
2016-Jun-23 21:17N 32°41' W 128°24'1419.0
2016-Jun-23 20:32N 32°48' W 128°39'2319.1
2016-Jun-23 19:21N 32°60' W 129°02'1519.1
2016-Jun-23 18:33N 33°08' W 129°17'2019.0
2016-Jun-23 17:29N 33°18' W 129°38'1718.7
2016-Jun-23 16:33N 33°26' W 129°57'1918.7
2016-Jun-23 15:33N 33°36' W 130°15'1918.7
2016-Jun-23 14:33N 33°46' W 130°35'1918.8
2016-Jun-23 13:32N 33°55' W 130°55'1919.0
2016-Jun-23 12:31N 34°04' W 131°15'  
Track history (hours):
 
Tides and Currents Weather Stations Pressure Air Temp Water Temp Dewpoint Dewpoint Depression Visibility Wind Speed Wind Dir Waves Ship Positions

Morning Clara

Last reported at 2016-Jun-25 04:33 UTC. Time now 2016-Jun-28 18:49 UTC.
Position N 27°13' W 118°45'.

Length 200 m; draft 9.4 m.

Type: Cargo ship. MMSI: 564254000.

Date/timePositionNaut miles runAvg speedWind from/ knotsBaromVisibWave heightAir tempDewpointWater temp
2016-Jun-25 04:33N 27°13' W 118°45'5919.2
2016-Jun-25 01:30N 27°46' W 119°39'2019.2
2016-Jun-25 00:26N 27°57' W 119°59'1719.3
2016-Jun-24 23:33N 28°06' W 120°15'1919.5
2016-Jun-24 22:33N 28°17' W 120°33'1919.3
2016-Jun-24 21:33N 28°29' W 120°51'1919.4
2016-Jun-24 20:33N 28°40' W 121°09'1919.4
2016-Jun-24 19:33N 28°51' W 121°27'1919.5
2016-Jun-24 18:33N 29°02' W 121°45'1919.3
2016-Jun-24 17:33N 29°13' W 122°04'1919.1
2016-Jun-24 16:33N 29°23' W 122°22'2318.9
2016-Jun-24 15:21N 29°36' W 122°44'1619.3
2016-Jun-24 14:31N 29°45' W 122°59'1919.3
2016-Jun-24 13:33N 29°55' W 123°17'1919.2
2016-Jun-24 12:33N 30°06' W 123°36'1919.3
2016-Jun-24 11:33N 30°17' W 123°54'2619.1
2016-Jun-24 10:11N 30°31' W 124°20'1219.1
2016-Jun-24 09:33N 30°37' W 124°31'2119.0
2016-Jun-24 08:26N 30°49' W 124°52'1618.8
2016-Jun-24 07:33N 30°58' W 125°08'2319.0
2016-Jun-24 06:22N 31°10' W 125°30'3719.1
2016-Jun-24 04:26N 31°30' W 126°07'1919.0
2016-Jun-24 03:27N 31°40' W 126°25'1718.9
2016-Jun-24 02:33N 31°49' W 126°42'1918.9
2016-Jun-24 01:33N 31°59' W 127°01'2019.2
2016-Jun-24 00:31N 32°09' W 127°21'1919.1
2016-Jun-23 23:32N 32°19' W 127°40'2219.1
2016-Jun-23 22:24N 32°30' W 128°02'2119.1
2016-Jun-23 21:17N 32°41' W 128°24'1419.0
2016-Jun-23 20:32N 32°48' W 128°39'2319.1
2016-Jun-23 19:21N 32°60' W 129°02'1519.1
2016-Jun-23 18:33N 33°08' W 129°17'2019.0
2016-Jun-23 17:29N 33°18' W 129°38'1718.7
2016-Jun-23 16:33N 33°26' W 129°57'1918.7
2016-Jun-23 15:33N 33°36' W 130°15'1918.7
2016-Jun-23 14:33N 33°46' W 130°35'1918.8
2016-Jun-23 13:32N 33°55' W 130°55'1919.0
2016-Jun-23 12:31N 34°04' W 131°15'  

Dump ship's entire track history